createdAt,value
2023-03-27T00:00:41.386Z,63.26
2023-03-27T00:03:15.767Z,64.30
2023-03-27T00:05:47.738Z,61.84
2023-03-27T00:08:20.982Z,62.08
2023-03-27T00:10:56.347Z,63.56
2023-03-27T00:13:28.726Z,62.25
2023-03-27T00:16:02.763Z,61.52
2023-03-27T00:18:34.677Z,62.52
2023-03-27T00:21:07.698Z,62.27
2023-03-27T00:23:40.421Z,62.60
2023-03-27T00:26:14.180Z,62.96
2023-03-27T00:28:45.995Z,62.56
2023-03-27T00:31:20.172Z,63.40
2023-03-27T00:33:52.247Z,63.42
2023-03-27T00:36:23.821Z,63.58
2023-03-27T00:38:55.667Z,63.51
2023-03-27T00:41:27.597Z,64.08
2023-03-27T00:43:59.422Z,62.52
2023-03-27T00:46:40.998Z,63.23
2023-03-27T00:49:17.435Z,62.24
2023-03-27T00:51:52.876Z,63.03
2023-03-27T00:54:31.966Z,63.36
2023-03-27T00:57:10.711Z,62.40
2023-03-27T00:59:47.485Z,63.42
2023-03-27T01:02:22.894Z,63.68
2023-03-27T01:04:57.727Z,63.07
2023-03-27T01:07:29.252Z,63.67
2023-03-27T01:10:01.837Z,63.19
2023-03-27T01:12:46.244Z,64.29
2023-03-27T01:15:36.691Z,64.09
2023-03-27T01:18:20.839Z,64.52
2023-03-27T01:21:39.551Z,64.39
2023-03-27T01:25:03.900Z,64.66
2023-03-27T01:28:17.511Z,64.17
2023-03-27T01:31:02.940Z,64.24
2023-03-27T01:34:01.951Z,63.94
2023-03-27T01:37:47.814Z,64.54
2023-03-27T01:40:27.856Z,64.40
2023-03-27T01:43:06.387Z,65.03
2023-03-27T01:45:48.216Z,65.01
2023-03-27T01:48:31.525Z,64.82
2023-03-27T01:51:10.805Z,64.06
2023-03-27T01:53:47.974Z,64.37
2023-03-27T01:56:27.090Z,64.55
2023-03-27T01:59:07.258Z,65.30
2023-03-27T02:01:46.475Z,64.64
2023-03-27T02:04:24.171Z,63.93
2023-03-27T02:07:02.720Z,64.77
2023-03-27T02:09:41.565Z,65.10
2023-03-27T02:12:19.597Z,64.99
2023-03-27T02:14:57.053Z,65.56
2023-03-27T02:17:56.922Z,65.56
2023-03-27T02:20:28.965Z,65.55
2023-03-27T02:23:01.426Z,65.63
2023-03-27T02:25:36.053Z,65.79
2023-03-27T02:28:49.641Z,65.48
2023-03-27T02:31:37.262Z,65.42
2023-03-27T02:34:28.991Z,65.79
2023-03-27T02:37:16.119Z,66.27
2023-03-27T02:39:59.270Z,65.93
2023-03-27T02:42:47.966Z,65.83
2023-03-27T02:45:31.435Z,66.14
2023-03-27T02:48:11.129Z,66.03
2023-03-27T02:50:49.133Z,66.42
2023-03-27T02:53:25.509Z,67.16
2023-03-27T02:56:03.475Z,67.18
2023-03-27T02:58:40.401Z,67.30
2023-03-27T03:01:18.085Z,66.95
2023-03-27T03:03:58.510Z,66.77
2023-03-27T03:06:31.015Z,67.25
2023-03-27T03:09:06.196Z,67.13
2023-03-27T03:11:46.574Z,67.11
2023-03-27T03:14:23.717Z,67.51
2023-03-27T03:16:57.631Z,67.16
2023-03-27T03:19:29.428Z,67.11
2023-03-27T03:22:01.628Z,67.27
2023-03-27T03:24:35.429Z,67.36
2023-03-27T03:27:08.155Z,67.61
2023-03-27T03:29:39.820Z,67.35
2023-03-27T03:32:13.737Z,68.33
2023-03-27T03:34:47.531Z,67.89
2023-03-27T03:37:19.842Z,68.45
2023-03-27T03:39:52.102Z,67.95
2023-03-27T03:42:24.087Z,68.44
2023-03-27T03:44:56.068Z,68.71
2023-03-27T03:47:29.236Z,68.21
2023-03-27T03:50:01.121Z,68.84
2023-03-27T03:52:32.881Z,68.18
2023-03-27T03:55:05.214Z,68.08
2023-03-27T03:57:37.363Z,69.04
2023-03-27T04:00:12.182Z,68.37
2023-03-27T04:02:45.581Z,69.23
2023-03-27T04:05:17.731Z,69.18
2023-03-27T04:07:50.343Z,70.08
2023-03-27T04:10:22.373Z,70.30
2023-03-27T04:12:54.566Z,70.50
2023-03-27T04:15:27.435Z,69.55
2023-03-27T04:18:01.051Z,69.73
2023-03-27T04:20:34.684Z,70.88
2023-03-27T04:23:08.178Z,70.84
2023-03-27T04:25:40.190Z,71.32
2023-03-27T04:28:16.748Z,72.11
2023-03-27T04:30:50.479Z,72.33
2023-03-27T04:33:24.523Z,72.21
2023-03-27T04:36:06.178Z,72.46
2023-03-27T04:38:40.895Z,72.60
2023-03-27T04:41:12.671Z,72.66
2023-03-27T04:43:46.060Z,72.47
2023-03-27T04:46:18.259Z,73.34
2023-03-27T04:48:51.747Z,73.28
2023-03-27T04:51:26.661Z,72.87
2023-03-27T04:53:58.437Z,73.14
2023-03-27T04:56:30.805Z,73.49
2023-03-27T04:59:04.720Z,73.22
2023-03-27T05:01:37.219Z,73.25
2023-03-27T05:04:10.538Z,73.12
2023-03-27T05:06:42.520Z,73.06
2023-03-27T05:09:14.571Z,73.59
2023-03-27T05:11:49.679Z,73.44
2023-03-27T05:14:23.552Z,73.61
2023-03-27T05:16:57.843Z,74.14
2023-03-27T05:19:31.181Z,73.80
2023-03-27T05:22:03.164Z,74.40
2023-03-27T05:24:35.199Z,74.03
2023-03-27T05:27:07.146Z,74.62
2023-03-27T05:29:47.119Z,74.45
2023-03-27T05:32:19.512Z,74.50
2023-03-27T05:34:54.748Z,74.22
2023-03-27T05:37:27.553Z,74.34
2023-03-27T05:39:59.407Z,74.37
2023-03-27T05:42:31.340Z,74.56
2023-03-27T05:45:03.152Z,75.07
2023-03-27T05:47:43.350Z,74.49
2023-03-27T05:50:18.204Z,74.90
2023-03-27T05:52:55.133Z,74.40
2023-03-27T05:55:27.999Z,74.76
2023-03-27T05:58:00.216Z,75.25
2023-03-27T06:00:34.146Z,74.90
2023-03-27T06:03:07.133Z,75.31
2023-03-27T06:05:41.494Z,75.38
2023-03-27T06:08:13.591Z,75.41
2023-03-27T06:10:46.833Z,75.60
2023-03-27T06:13:18.830Z,75.25
2023-03-27T06:15:54.085Z,74.96
2023-03-27T06:18:25.776Z,75.22
2023-03-27T06:20:59.066Z,74.90
2023-03-27T06:23:31.811Z,75.03
2023-03-27T06:26:03.766Z,74.56
2023-03-27T06:28:35.737Z,74.09
2023-03-27T06:31:08.431Z,73.75
2023-03-27T06:33:40.973Z,73.77
2023-03-27T06:36:15.919Z,73.70
2023-03-27T06:38:47.653Z,73.75
2023-03-27T06:41:19.500Z,74.20
2023-03-27T06:43:51.306Z,73.43
2023-03-27T06:46:27.576Z,73.70
2023-03-27T06:49:04.075Z,73.61
2023-03-27T06:51:37.095Z,73.20
2023-03-27T06:54:09.836Z,73.55
2023-03-27T06:56:41.701Z,73.12
2023-03-27T06:59:13.507Z,73.39
2023-03-27T07:01:46.192Z,73.35
2023-03-27T07:04:18.152Z,73.48
2023-03-27T07:06:51.573Z,73.33
2023-03-27T07:09:23.202Z,73.57
2023-03-27T07:11:55.225Z,73.18
2023-03-27T07:14:26.893Z,72.88
2023-03-27T07:16:58.752Z,73.51
2023-03-27T07:19:30.607Z,74.60
2023-03-27T07:22:03.569Z,74.29
2023-03-27T07:24:35.527Z,75.51
2023-03-27T07:27:07.697Z,74.97
2023-03-27T07:29:40.276Z,75.85
2023-03-27T07:32:13.553Z,74.05
2023-03-27T07:34:48.811Z,75.04
2023-03-27T07:37:22.870Z,74.00
2023-03-27T07:39:56.382Z,74.68
2023-03-27T07:42:29.580Z,74.24
2023-03-27T07:45:04.022Z,74.47
2023-03-27T07:47:36.554Z,74.55
2023-03-27T07:50:13.531Z,74.12
2023-03-27T07:52:47.662Z,73.80
2023-03-27T07:55:22.986Z,72.94
2023-03-27T07:58:01.505Z,73.31
2023-03-27T08:00:35.494Z,72.96
2023-03-27T08:03:15.640Z,72.41
2023-03-27T08:05:57.545Z,72.55
2023-03-27T08:08:31.716Z,72.41
2023-03-27T08:11:08.219Z,72.54
2023-03-27T08:13:45.198Z,72.08
2023-03-27T08:16:19.655Z,70.85
2023-03-27T08:18:51.829Z,70.04
2023-03-27T08:21:25.228Z,70.93
2023-03-27T08:23:58.990Z,71.43
2023-03-27T08:26:31.726Z,70.83
2023-03-27T08:29:03.654Z,70.37
2023-03-27T08:31:35.333Z,71.08
2023-03-27T08:34:07.354Z,70.68
2023-03-27T08:36:39.223Z,70.39
2023-03-27T08:39:12.689Z,70.35
2023-03-27T08:41:56.900Z,68.61
2023-03-27T08:44:33.959Z,69.03
2023-03-27T08:47:13.151Z,69.94
2023-03-27T08:49:53.690Z,69.70
2023-03-27T08:52:31.962Z,70.14
2023-03-27T08:55:13.831Z,67.55
2023-03-27T08:57:45.703Z,67.99
2023-03-27T09:00:31.731Z,66.64
2023-03-27T09:03:13.907Z,66.43
2023-03-27T09:05:54.969Z,65.24
2023-03-27T09:08:44.649Z,67.17
2023-03-27T09:11:33.666Z,65.69
2023-03-27T09:14:13.904Z,65.52
2023-03-27T09:16:51.027Z,66.69
2023-03-27T09:19:36.326Z,63.97
2023-03-27T09:22:17.963Z,64.49
2023-03-27T09:24:55.188Z,64.08
2023-03-27T09:27:35.300Z,65.48
2023-03-27T09:30:25.429Z,65.13
2023-03-27T09:33:05.034Z,63.82
2023-03-27T09:35:38.965Z,63.39
2023-03-27T09:38:26.047Z,63.24
2023-03-27T09:41:02.861Z,62.22
2023-03-27T09:43:45.190Z,62.36
2023-03-27T09:46:22.484Z,60.69
2023-03-27T09:49:00.934Z,60.38
2023-03-27T09:51:47.597Z,61.99
2023-03-27T09:54:22.724Z,60.16
2023-03-27T09:57:00.133Z,59.94
2023-03-27T09:59:37.836Z,60.44
2023-03-27T10:02:23.153Z,60.84
2023-03-27T10:05:12.003Z,66.74
2023-03-27T10:07:44.887Z,68.22
2023-03-27T10:10:21.739Z,70.39
2023-03-27T10:12:58.239Z,70.58
2023-03-27T10:15:38.518Z,72.34
2023-03-27T10:18:23.597Z,73.39
2023-03-27T10:20:57.191Z,74.13
2023-03-27T10:23:40.502Z,73.85
2023-03-27T10:26:21.109Z,73.25
2023-03-27T10:28:58.977Z,73.15
2023-03-27T10:31:34.242Z,72.81
2023-03-27T10:34:26.697Z,69.54
2023-03-27T10:37:01.498Z,64.50
2023-03-27T10:39:37.352Z,64.48
2023-03-27T10:42:14.391Z,64.16
2023-03-27T10:44:48.121Z,63.53
2023-03-27T10:47:32.530Z,59.15
2023-03-27T10:50:16.782Z,56.48
2023-03-27T10:53:01.766Z,57.72
2023-03-27T10:55:58.586Z,58.35
2023-03-27T10:58:40.766Z,59.42
2023-03-27T11:01:22.165Z,60.16
2023-03-27T11:04:05.317Z,64.14
2023-03-27T11:06:43.861Z,70.27
2023-03-27T11:09:24.444Z,72.05
2023-03-27T11:12:04.202Z,73.82
2023-03-27T11:14:47.392Z,72.85
2023-03-27T11:17:29.116Z,73.57
2023-03-27T11:20:11.432Z,71.05
2023-03-27T11:22:51.392Z,71.09
2023-03-27T11:25:33.810Z,71.29
2023-03-27T11:28:15.792Z,73.38
2023-03-27T11:30:56.495Z,72.80
2023-03-27T11:33:55.998Z,73.00
2023-03-27T11:36:42.524Z,74.21
2023-03-27T11:39:29.654Z,72.57
2023-03-27T11:42:11.424Z,75.42
2023-03-27T11:44:43.385Z,73.39
2023-03-27T11:47:34.628Z,72.19
2023-03-27T11:50:24.418Z,71.65
2023-03-27T11:53:52.157Z,72.55
2023-03-27T11:56:50.837Z,70.85
2023-03-27T11:59:43.656Z,68.28
2023-03-27T12:02:55.748Z,68.50
2023-03-27T12:05:43.136Z,60.17
2023-03-27T12:08:28.074Z,57.83
2023-03-27T12:11:07.123Z,59.52
2023-03-27T12:14:20.971Z,59.90
2023-03-27T12:17:25.590Z,58.73
2023-03-27T12:20:46.198Z,56.02
2023-03-27T12:23:43.981Z,55.18
2023-03-27T12:27:13.219Z,56.05
2023-03-27T12:30:06.891Z,53.74
2023-03-27T12:33:03.340Z,52.56
2023-03-27T12:35:43.089Z,55.36
2023-03-27T12:38:28.638Z,50.20
2023-03-27T12:41:20.017Z,51.89
2023-03-27T12:43:58.329Z,53.33
2023-03-27T12:46:37.407Z,62.20
2023-03-27T12:49:48.357Z,68.21
2023-03-27T12:52:20.494Z,68.98
2023-03-27T12:55:29.550Z,72.21
2023-03-27T12:58:05.652Z,71.26
2023-03-27T13:00:37.914Z,73.03
2023-03-27T13:03:41.040Z,75.17
2023-03-27T13:06:36.360Z,75.56
2023-03-27T13:09:43.710Z,75.85
2023-03-27T13:12:48.283Z,75.80
2023-03-27T13:15:37.434Z,77.33
2023-03-27T13:18:31.835Z,74.99
2023-03-27T13:21:18.980Z,75.44
2023-03-27T13:24:26.259Z,71.50
2023-03-27T13:27:23.331Z,71.65
2023-03-27T13:29:59.016Z,71.29
2023-03-27T13:32:41.262Z,72.05
2023-03-27T13:35:40.772Z,67.89
2023-03-27T13:38:15.277Z,68.69
2023-03-27T13:40:51.071Z,67.30
2023-03-27T13:43:33.660Z,65.51
2023-03-27T13:46:08.897Z,63.04
2023-03-27T13:49:07.130Z,63.30
2023-03-27T13:52:18.038Z,58.48
2023-03-27T13:55:28.747Z,57.21
2023-03-27T13:58:26.837Z,57.46
2023-03-27T14:01:30.562Z,57.20
2023-03-27T14:04:33.169Z,58.16
2023-03-27T14:07:25.340Z,60.93
2023-03-27T14:10:32.373Z,65.46
2023-03-27T14:13:22.078Z,68.04
2023-03-27T14:16:22.398Z,68.23
2023-03-27T14:19:24.231Z,67.97
2023-03-27T14:22:00.845Z,68.65
2023-03-27T14:24:41.100Z,68.39
2023-03-27T14:27:22.596Z,69.84
2023-03-27T14:30:07.386Z,67.11
2023-03-27T14:32:40.068Z,66.90
2023-03-27T14:35:33.242Z,65.60
2023-03-27T14:38:08.894Z,65.18
2023-03-27T14:40:47.910Z,63.10
2023-03-27T14:43:22.910Z,64.37
2023-03-27T14:46:00.317Z,61.85
2023-03-27T14:48:37.013Z,62.75
2023-03-27T14:51:16.137Z,62.76
2023-03-27T14:53:52.147Z,63.34
2023-03-27T14:56:29.466Z,63.43
2023-03-27T14:59:07.022Z,65.54
2023-03-27T15:01:39.340Z,64.86
2023-03-27T15:04:14.367Z,64.69
2023-03-27T15:06:49.910Z,65.08
2023-03-27T15:09:23.237Z,64.78
2023-03-27T15:12:00.055Z,63.77
2023-03-27T15:14:33.372Z,63.27
2023-03-27T15:17:14.784Z,62.50
2023-03-27T15:19:50.758Z,61.76
2023-03-27T15:22:31.389Z,63.26
2023-03-27T15:25:09.901Z,63.27
2023-03-27T15:27:48.172Z,62.36
2023-03-27T15:30:28.216Z,62.81
2023-03-27T15:33:04.240Z,62.40
2023-03-27T15:35:44.956Z,61.69
2023-03-27T15:38:25.405Z,61.96
2023-03-27T15:41:23.340Z,62.32
2023-03-27T15:44:05.164Z,60.12
2023-03-27T15:46:48.658Z,60.70
2023-03-27T15:49:28.838Z,60.61
2023-03-27T15:52:21.680Z,61.46
2023-03-27T15:55:00.761Z,59.54
2023-03-27T15:57:33.182Z,61.59
2023-03-27T16:00:15.258Z,61.21
2023-03-27T16:02:47.944Z,60.03
2023-03-27T16:05:21.884Z,57.82
2023-03-27T16:07:53.663Z,58.76
2023-03-27T16:10:35.786Z,61.36
2023-03-27T16:13:22.040Z,63.18
2023-03-27T16:16:03.367Z,62.89
2023-03-27T16:18:37.962Z,62.87
2023-03-27T16:21:13.190Z,65.46
2023-03-27T16:23:45.485Z,64.81
2023-03-27T16:26:23.045Z,64.69
2023-03-27T16:28:56.327Z,63.33
2023-03-27T16:31:28.520Z,62.16
2023-03-27T16:34:00.146Z,62.51
2023-03-27T16:36:35.552Z,62.06
2023-03-27T16:39:09.121Z,59.12
2023-03-27T16:41:42.407Z,59.42
2023-03-27T16:44:14.308Z,59.82
2023-03-27T16:46:46.464Z,60.18
2023-03-27T16:49:18.516Z,60.04
2023-03-27T16:51:50.402Z,59.90
2023-03-27T16:54:22.390Z,59.93
2023-03-27T16:56:55.855Z,59.65
2023-03-27T16:59:28.153Z,60.83
2023-03-27T17:01:59.848Z,59.45
2023-03-27T17:04:32.124Z,60.16
2023-03-27T17:07:04.108Z,60.14
2023-03-27T17:09:36.054Z,60.51
2023-03-27T17:12:09.786Z,59.96
2023-03-27T17:14:41.878Z,60.91
2023-03-27T17:17:13.948Z,60.73
2023-03-27T17:19:45.517Z,62.41
2023-03-27T17:22:18.287Z,62.17
2023-03-27T17:24:56.746Z,62.23
2023-03-27T17:27:30.570Z,62.97
2023-03-27T17:30:02.388Z,61.98
2023-03-27T17:32:33.976Z,61.67
2023-03-27T17:35:06.312Z,61.64
2023-03-27T17:37:39.140Z,61.53
2023-03-27T17:40:14.311Z,61.89
2023-03-27T17:42:48.146Z,61.09
2023-03-27T17:45:20.035Z,61.30
2023-03-27T17:47:52.050Z,59.80
2023-03-27T17:50:23.894Z,59.55
2023-03-27T17:52:55.801Z,58.83
2023-03-27T17:55:27.518Z,59.24
2023-03-27T17:58:08.890Z,58.68
2023-03-27T18:00:42.358Z,58.92
2023-03-27T18:03:14.402Z,58.28
2023-03-27T18:05:46.877Z,58.74
2023-03-27T18:08:21.568Z,57.70
2023-03-27T18:10:54.600Z,57.81
2023-03-27T18:13:28.319Z,58.01
2023-03-27T18:16:00.402Z,58.18
2023-03-27T18:18:32.956Z,57.98
2023-03-27T18:21:05.022Z,61.96
2023-03-27T18:23:38.394Z,64.76
2023-03-27T18:26:18.326Z,66.89
2023-03-27T18:28:52.306Z,68.33
2023-03-27T18:31:24.567Z,67.78
2023-03-27T18:33:56.512Z,68.90
2023-03-27T18:36:28.488Z,70.60
2023-03-27T18:39:02.946Z,71.41
2023-03-27T18:41:36.561Z,70.15
2023-03-27T18:44:11.279Z,71.01
2023-03-27T18:46:44.110Z,69.87
2023-03-27T18:49:24.118Z,70.13
2023-03-27T18:51:56.959Z,69.54
2023-03-27T18:54:28.944Z,69.87
2023-03-27T18:57:00.691Z,70.10
2023-03-27T18:59:33.892Z,70.09
2023-03-27T19:02:05.730Z,70.41
2023-03-27T19:04:37.678Z,69.87
2023-03-27T19:07:09.838Z,69.05
2023-03-27T19:09:41.972Z,70.43
2023-03-27T19:12:15.302Z,69.72
2023-03-27T19:14:48.492Z,70.44
2023-03-27T19:17:21.052Z,70.77
2023-03-27T19:19:54.156Z,70.73
2023-03-27T19:22:26.213Z,69.67
2023-03-27T19:24:58.191Z,70.22
2023-03-27T19:27:39.183Z,69.86
2023-03-27T19:30:15.956Z,69.14
2023-03-27T19:32:47.846Z,69.15
2023-03-27T19:35:20.787Z,69.13
2023-03-27T19:37:54.149Z,68.74
2023-03-27T19:40:25.769Z,69.38
2023-03-27T19:42:58.136Z,69.00
2023-03-27T19:45:31.137Z,68.70
2023-03-27T19:48:03.235Z,69.46
2023-03-27T19:50:36.591Z,68.67
2023-03-27T19:53:09.177Z,68.28
2023-03-27T19:55:41.290Z,68.47
2023-03-27T19:58:13.350Z,68.05
2023-03-27T20:00:50.075Z,68.83
2023-03-27T20:03:24.314Z,68.43
2023-03-27T20:06:07.039Z,68.32
2023-03-27T20:08:40.365Z,68.49
2023-03-27T20:11:12.271Z,68.58
2023-03-27T20:13:55.511Z,69.46
2023-03-27T20:16:31.644Z,68.62
2023-03-27T20:19:06.372Z,69.31
2023-03-27T20:21:40.630Z,68.47
2023-03-27T20:24:14.342Z,69.23
2023-03-27T20:26:48.267Z,69.10
2023-03-27T20:29:23.777Z,68.77
2023-03-27T20:31:57.000Z,68.17
2023-03-27T20:34:28.676Z,68.86
2023-03-27T20:37:00.895Z,68.75
2023-03-27T20:39:33.493Z,70.28
2023-03-27T20:42:07.583Z,69.93
2023-03-27T20:44:39.452Z,70.20
2023-03-27T20:47:13.176Z,69.30
2023-03-27T20:49:45.807Z,70.52
2023-03-27T20:52:22.585Z,70.24
2023-03-27T20:54:54.405Z,70.20
2023-03-27T20:57:26.231Z,70.25
2023-03-27T20:59:58.127Z,69.50
2023-03-27T21:02:31.298Z,70.22
2023-03-27T21:05:03.373Z,70.00
2023-03-27T21:07:38.061Z,70.13
2023-03-27T21:10:11.125Z,70.19
2023-03-27T21:12:43.121Z,70.54
2023-03-27T21:15:16.343Z,70.57
2023-03-27T21:17:49.639Z,70.54
2023-03-27T21:20:21.605Z,70.75
2023-03-27T21:22:53.540Z,70.48
2023-03-27T21:25:26.036Z,69.92
2023-03-27T21:27:57.842Z,70.50
2023-03-27T21:30:46.500Z,70.74
2023-03-27T21:33:21.716Z,70.78
2023-03-27T21:35:54.314Z,70.83
2023-03-27T21:38:25.920Z,71.18
2023-03-27T21:40:57.728Z,72.85
2023-03-27T21:43:29.651Z,72.71
2023-03-27T21:46:03.630Z,72.83
2023-03-27T21:48:37.136Z,72.64
2023-03-27T21:51:11.477Z,72.03
2023-03-27T21:53:43.381Z,73.63
2023-03-27T21:56:15.271Z,74.17
2023-03-27T21:58:47.292Z,74.29
2023-03-27T22:01:19.104Z,74.88
2023-03-27T22:03:52.351Z,74.73
2023-03-27T22:06:24.240Z,75.53
2023-03-27T22:08:56.253Z,75.22
2023-03-27T22:11:28.721Z,75.20
2023-03-27T22:14:00.625Z,76.00
2023-03-27T22:16:34.773Z,76.84
2023-03-27T22:19:07.986Z,77.44
2023-03-27T22:21:39.822Z,77.08
2023-03-27T22:24:12.072Z,76.61
2023-03-27T22:26:44.819Z,77.17
2023-03-27T22:29:17.400Z,76.70
2023-03-27T22:31:49.266Z,77.18
2023-03-27T22:34:22.235Z,77.50
2023-03-27T22:36:54.041Z,78.07
2023-03-27T22:39:26.170Z,78.47
2023-03-27T22:41:58.024Z,78.34
2023-03-27T22:44:32.221Z,78.71
2023-03-27T22:47:03.906Z,78.75
2023-03-27T22:49:37.140Z,78.45
2023-03-27T22:52:09.091Z,78.24
2023-03-27T22:54:40.953Z,78.21
2023-03-27T22:57:13.353Z,77.69
2023-03-27T22:59:45.404Z,78.26
2023-03-27T23:02:17.219Z,78.16
2023-03-27T23:04:50.452Z,78.77
2023-03-27T23:07:22.304Z,78.50
2023-03-27T23:09:54.097Z,78.20
2023-03-27T23:14:57.774Z,78.25
2023-03-27T23:17:29.405Z,79.33
2023-03-27T23:20:02.695Z,80.04
2023-03-27T23:22:34.470Z,79.12
2023-03-27T23:25:07.677Z,79.39
2023-03-27T23:27:39.306Z,79.42
2023-03-27T23:30:11.675Z,79.38
2023-03-27T23:32:43.356Z,79.95
2023-03-27T23:35:17.488Z,80.43
2023-03-27T23:37:49.069Z,80.80
2023-03-27T23:40:21.048Z,80.75
2023-03-27T23:42:52.822Z,81.16
2023-03-27T23:45:24.652Z,81.45
2023-03-27T23:47:56.484Z,82.55
2023-03-27T23:50:29.765Z,83.02
2023-03-27T23:53:01.546Z,83.69
2023-03-27T23:55:33.350Z,83.16
2023-03-27T23:58:05.279Z,84.22
